Robbins, Illinois
Current Conditions -  °F | °C
As of 5:53 AM on Friday 28 Nov 2014 (Local Time) from KMDW Reporting Station
Overcast Overcast  
Wind Chill: 14°   Ceiling: 7000
Heat Index: 22°   Visibility: 10mi
Dew Point: 13°   Wind: 6mph
Humidity: 68%   Direction: 180°S
Pressure: 30.31"   Gusts: NA
Location:  41.64°N, 87.7°W
Report Text: KMDW 281153Z 18005KT 10SM BKN070 OVC080 M06/M11 A3031 RMK AO2 SNE38 SLP282 P0000 60000 T10561106 11056 21067 57020 $
Loading
Personal Weather Stations






























Interactive Weather Map New forecast layout! Learn more

10-Day Weather Forecast

Advertisements
Track Severe Weather on mobile